Terminal Aerodrome Forecast
Issued by NWS

Home | Current Version | Previous Version | Text Only | Print | Product List | Glossary Off
Versions: 1 2 3 4 5 6 7 8 9 10 11 12 13 14 15

000
FTUS43 KBIS 280300 AAA
TAFMOT
TAF AMD
KMOT 280307Z 2803/2824 VRB03KT P6SM SCT035 SCT050
     FM280700 28003KT P6SM FEW045
     FM281600 34004KT P6SM SCT050
     FM281900 02007KT P6SM SCT060=

USA.gov is the U.S. government's official web portal to all federal, state and local government web resources and services.